createdAt,value
2022-10-04T00:00:12.178Z,10.70
2022-10-04T00:03:09.605Z,10.70
2022-10-04T00:05:41.796Z,10.60
2022-10-04T00:08:21.285Z,10.60
2022-10-04T00:10:52.423Z,10.70
2022-10-04T00:13:26.985Z,10.70
2022-10-04T00:15:58.215Z,10.60
2022-10-04T00:18:35.761Z,10.60
2022-10-04T00:21:07.821Z,10.60
2022-10-04T00:23:46.512Z,10.60
2022-10-04T00:26:38.595Z,10.60
2022-10-04T00:29:24.122Z,10.60
2022-10-04T00:32:12.891Z,10.60
2022-10-04T00:34:53.132Z,10.60
2022-10-04T00:37:25.578Z,10.60
2022-10-04T00:40:01.849Z,10.60
2022-10-04T00:42:38.669Z,10.60
2022-10-04T00:45:26.586Z,10.60
2022-10-04T00:48:16.232Z,10.60
2022-10-04T00:50:52.257Z,10.60
2022-10-04T00:53:26.507Z,10.70
2022-10-04T00:55:58.977Z,10.70
2022-10-04T00:58:32.230Z,10.70
2022-10-04T01:01:04.706Z,10.70
2022-10-04T01:03:38.888Z,10.70
2022-10-04T01:06:13.881Z,10.60
2022-10-04T01:08:48.387Z,10.70
2022-10-04T01:11:21.407Z,10.60
2022-10-04T01:13:53.485Z,10.70
2022-10-04T01:16:25.954Z,10.70
2022-10-04T01:18:57.726Z,10.70
2022-10-04T01:21:34.170Z,10.60
2022-10-04T01:24:20.159Z,10.50
2022-10-04T01:26:54.579Z,10.60
2022-10-04T01:29:28.554Z,10.60
2022-10-04T01:32:00.523Z,10.60
2022-10-04T01:34:32.703Z,10.60
2022-10-04T01:37:04.025Z,10.50
2022-10-04T01:39:35.091Z,10.50
2022-10-04T01:42:10.559Z,10.60
2022-10-04T01:44:42.603Z,10.60
2022-10-04T01:47:16.183Z,10.60
2022-10-04T01:49:48.690Z,10.60
2022-10-04T01:52:22.604Z,10.60
2022-10-04T01:54:55.525Z,10.50
2022-10-04T01:57:33.476Z,10.50
2022-10-04T02:00:05.668Z,10.50
2022-10-04T02:02:39.340Z,10.50
2022-10-04T02:05:13.213Z,10.40
2022-10-04T02:07:44.488Z,10.50
2022-10-04T02:10:19.886Z,10.50
2022-10-04T02:12:55.297Z,10.60
2022-10-04T02:15:28.361Z,10.60
2022-10-04T02:17:59.669Z,10.50
2022-10-04T02:20:30.874Z,10.50
2022-10-04T02:23:03.468Z,10.50
2022-10-04T02:25:35.291Z,10.50
2022-10-04T02:28:13.406Z,10.50
2022-10-04T02:31:05.588Z,10.50
2022-10-04T02:33:34.100Z,10.40
2022-10-04T02:36:06.000Z,10.40
2022-10-04T02:38:37.344Z,10.40
2022-10-04T02:41:12.649Z,10.40
2022-10-04T02:43:49.572Z,10.40
2022-10-04T02:46:24.592Z,10.30
2022-10-04T02:48:58.804Z,10.40
2022-10-04T02:51:33.615Z,10.40
2022-10-04T02:54:06.852Z,10.40
2022-10-04T02:56:40.266Z,10.50
2022-10-04T02:59:17.139Z,10.50
2022-10-04T03:01:52.732Z,10.50
2022-10-04T03:04:24.665Z,10.40
2022-10-04T03:06:56.149Z,10.40
2022-10-04T03:09:30.041Z,10.50
2022-10-04T03:12:01.633Z,10.50
2022-10-04T03:14:35.433Z,10.50
2022-10-04T03:17:07.828Z,10.50
2022-10-04T03:19:39.069Z,10.50
2022-10-04T03:22:11.252Z,10.40
2022-10-04T03:24:42.822Z,10.40
2022-10-04T03:27:17.223Z,10.50
2022-10-04T03:29:52.729Z,10.60
2022-10-04T03:32:27.253Z,10.50
2022-10-04T03:34:59.438Z,10.50
2022-10-04T03:37:32.324Z,10.50
2022-10-04T03:40:04.511Z,10.40
2022-10-04T03:42:37.505Z,10.40
2022-10-04T03:45:15.744Z,10.40
2022-10-04T03:47:48.667Z,10.40
2022-10-04T03:50:21.607Z,10.40
2022-10-04T03:52:54.857Z,10.40
2022-10-04T03:55:27.966Z,10.40
2022-10-04T03:57:59.688Z,10.40
2022-10-04T04:00:33.110Z,10.40
2022-10-04T04:03:05.673Z,10.40
2022-10-04T04:05:40.154Z,10.40
2022-10-04T04:08:15.548Z,10.40
2022-10-04T04:10:48.085Z,10.30
2022-10-04T04:13:28.940Z,10.30
2022-10-04T04:16:03.560Z,10.30
2022-10-04T04:18:35.953Z,10.20
2022-10-04T04:21:08.274Z,10.30
2022-10-04T04:23:40.967Z,10.20
2022-10-04T04:26:17.764Z,10.10
2022-10-04T04:28:51.281Z,10.10
2022-10-04T04:31:28.331Z,10.10
2022-10-04T04:34:00.840Z,10.10
2022-10-04T04:36:32.934Z,10.20
2022-10-04T04:39:23.411Z,10.10
2022-10-04T04:41:54.151Z,10.00
2022-10-04T04:44:25.506Z,10.00
2022-10-04T04:47:00.845Z,10.00
2022-10-04T04:49:33.314Z,10.10
2022-10-04T04:52:04.539Z,10.00
2022-10-04T04:54:35.593Z,10.00
2022-10-04T04:57:07.596Z,10.00
2022-10-04T04:59:39.015Z,10.00
2022-10-04T05:02:29.644Z,10.00
2022-10-04T05:05:15.651Z,10.00
2022-10-04T05:07:46.518Z,9.90
2022-10-04T05:10:24.377Z,9.90
2022-10-04T05:12:55.633Z,9.90
2022-10-04T05:15:26.654Z,9.90
2022-10-04T05:17:59.953Z,9.90
2022-10-04T05:20:31.715Z,9.90
2022-10-04T05:23:02.454Z,9.90
2022-10-04T05:25:35.109Z,9.90
2022-10-04T05:28:06.018Z,9.90
2022-10-04T05:30:44.123Z,9.90
2022-10-04T05:33:19.962Z,10.00
2022-10-04T05:35:59.060Z,9.90
2022-10-04T05:38:35.195Z,10.00
2022-10-04T05:41:09.229Z,10.10
2022-10-04T05:43:41.055Z,10.20
2022-10-04T05:46:24.107Z,10.20
2022-10-04T05:48:58.920Z,10.30
2022-10-04T05:51:31.217Z,10.20
2022-10-04T05:54:04.031Z,10.10
2022-10-04T05:56:52.321Z,10.10
2022-10-04T05:59:28.710Z,10.20
2022-10-04T06:02:03.301Z,10.20
2022-10-04T06:04:51.980Z,10.20
2022-10-04T06:07:29.240Z,10.20
2022-10-04T06:10:05.955Z,10.20
2022-10-04T06:12:44.797Z,10.20
2022-10-04T06:15:33.348Z,10.10
2022-10-04T06:18:14.415Z,10.20
2022-10-04T06:21:01.145Z,10.20
2022-10-04T06:23:36.514Z,10.20
2022-10-04T06:26:10.044Z,10.30
2022-10-04T06:28:44.095Z,10.30
2022-10-04T06:31:32.720Z,10.30
2022-10-04T06:34:11.281Z,10.30
2022-10-04T06:36:54.957Z,10.40
2022-10-04T06:39:40.685Z,10.50
2022-10-04T06:42:26.183Z,10.50
2022-10-04T06:45:14.111Z,10.50
2022-10-04T06:47:54.684Z,10.50
2022-10-04T06:50:29.397Z,10.60
2022-10-04T06:53:16.737Z,10.70
2022-10-04T06:56:05.801Z,10.70
2022-10-04T06:58:50.110Z,10.80
2022-10-04T07:01:26.630Z,10.80
2022-10-04T07:03:59.841Z,10.70
2022-10-04T07:06:32.171Z,10.80
2022-10-04T07:09:05.708Z,10.80
2022-10-04T07:11:43.013Z,10.70
2022-10-04T07:14:20.521Z,10.70
2022-10-04T07:16:54.151Z,10.70
2022-10-04T07:19:36.655Z,10.70
2022-10-04T07:22:15.375Z,10.80
2022-10-04T07:24:50.439Z,10.90
2022-10-04T07:27:23.902Z,10.90
2022-10-04T07:29:56.737Z,11.00
2022-10-04T07:32:30.403Z,11.00
2022-10-04T07:35:02.688Z,11.00
2022-10-04T07:37:36.182Z,11.10
2022-10-04T07:40:09.520Z,11.10
2022-10-04T07:42:43.392Z,11.10
2022-10-04T07:45:20.980Z,11.10
2022-10-04T07:47:52.209Z,11.20
2022-10-04T07:50:26.953Z,11.20
2022-10-04T07:53:00.540Z,11.30
2022-10-04T07:55:34.440Z,11.30
2022-10-04T07:58:11.627Z,11.40
2022-10-04T08:00:50.127Z,11.40
2022-10-04T08:03:31.948Z,11.40
2022-10-04T08:06:10.621Z,11.40
2022-10-04T08:08:54.041Z,11.50
2022-10-04T08:11:28.673Z,11.50
2022-10-04T08:14:03.032Z,11.60
2022-10-04T08:16:46.786Z,11.70
2022-10-04T08:19:25.820Z,11.80
2022-10-04T08:22:01.211Z,11.70
2022-10-04T08:24:35.420Z,11.80
2022-10-04T08:27:18.134Z,11.80
2022-10-04T08:29:54.522Z,11.90
2022-10-04T08:32:40.080Z,12.10
2022-10-04T08:35:27.724Z,12.10
2022-10-04T08:38:12.547Z,12.10
2022-10-04T08:41:08.108Z,12.10
2022-10-04T08:43:49.739Z,12.20
2022-10-04T08:46:34.490Z,12.20
2022-10-04T08:49:20.204Z,12.10
2022-10-04T08:52:06.208Z,12.10
2022-10-04T08:54:57.219Z,12.00
2022-10-04T08:57:43.560Z,12.10
2022-10-04T09:00:19.775Z,12.10
2022-10-04T09:03:02.833Z,12.10
2022-10-04T09:05:49.508Z,12.20
2022-10-04T09:08:29.929Z,12.30
2022-10-04T09:11:23.263Z,12.20
2022-10-04T09:14:03.476Z,12.30
2022-10-04T09:16:42.342Z,12.30
2022-10-04T09:19:23.544Z,12.40
2022-10-04T09:22:18.455Z,12.50
2022-10-04T09:25:16.969Z,12.70
2022-10-04T09:28:05.795Z,12.70
2022-10-04T09:30:43.458Z,12.70
2022-10-04T09:33:21.421Z,12.60
2022-10-04T09:36:06.867Z,12.50
2022-10-04T09:39:25.268Z,12.50
2022-10-04T09:42:06.058Z,12.50
2022-10-04T09:44:54.852Z,12.40
2022-10-04T09:47:38.001Z,12.30
2022-10-04T09:50:26.773Z,12.30
2022-10-04T09:53:00.134Z,12.30
2022-10-04T09:55:52.145Z,12.30
2022-10-04T09:58:33.803Z,12.50
2022-10-04T10:01:10.611Z,12.50
2022-10-04T10:03:59.394Z,12.60
2022-10-04T10:06:41.952Z,12.60
2022-10-04T10:09:18.676Z,12.70
2022-10-04T10:12:07.474Z,12.80
2022-10-04T10:14:48.156Z,12.80
2022-10-04T10:17:23.347Z,12.80
2022-10-04T10:20:16.850Z,12.80
2022-10-04T10:23:05.809Z,12.70
2022-10-04T10:25:43.338Z,12.90
2022-10-04T10:28:26.094Z,13.10
2022-10-04T10:31:09.301Z,13.50
2022-10-04T10:34:05.129Z,13.80
2022-10-04T10:36:40.890Z,13.70
2022-10-04T10:39:26.630Z,13.80
2022-10-04T10:42:08.117Z,13.90
2022-10-04T10:44:46.566Z,14.10
2022-10-04T10:47:29.352Z,14.20
2022-10-04T10:50:10.173Z,14.10
2022-10-04T10:52:56.077Z,14.10
2022-10-04T10:55:55.185Z,14.10
2022-10-04T10:58:47.126Z,14.20
2022-10-04T11:01:29.897Z,14.30
2022-10-04T11:04:14.482Z,14.30
2022-10-04T11:06:59.012Z,14.30
2022-10-04T11:09:34.473Z,14.40
2022-10-04T11:12:16.889Z,14.40
2022-10-04T11:14:58.458Z,14.30
2022-10-04T11:17:43.972Z,14.30
2022-10-04T11:20:35.588Z,14.10
2022-10-04T11:23:31.388Z,14.00
2022-10-04T11:26:17.171Z,13.90
2022-10-04T11:28:49.337Z,13.80
2022-10-04T11:31:46.985Z,13.60
2022-10-04T11:34:47.560Z,13.50
2022-10-04T11:37:23.799Z,13.40
2022-10-04T11:40:18.504Z,13.30
2022-10-04T11:43:01.240Z,13.30
2022-10-04T11:45:39.929Z,13.30
2022-10-04T11:48:19.392Z,13.30
2022-10-04T11:51:00.856Z,13.30
2022-10-04T11:53:47.846Z,13.40
2022-10-04T11:56:25.243Z,13.60
2022-10-04T11:59:03.446Z,13.70
2022-10-04T12:01:48.456Z,13.70
2022-10-04T12:04:33.980Z,13.70
2022-10-04T12:07:10.573Z,13.60
2022-10-04T12:09:44.939Z,13.50
2022-10-04T12:12:42.209Z,13.50
2022-10-04T12:15:36.329Z,13.50
2022-10-04T12:18:21.938Z,13.60
2022-10-04T12:21:02.182Z,13.60
2022-10-04T12:23:46.789Z,13.60
2022-10-04T12:26:43.202Z,13.70
2022-10-04T12:29:37.906Z,13.80
2022-10-04T12:32:13.607Z,13.90
2022-10-04T12:34:48.894Z,13.90
2022-10-04T12:37:24.301Z,13.90
2022-10-04T12:40:00.860Z,13.90
2022-10-04T12:42:37.937Z,13.80
2022-10-04T12:45:22.333Z,13.80
2022-10-04T12:48:05.360Z,13.70
2022-10-04T12:50:44.476Z,13.80
2022-10-04T12:53:20.648Z,13.90
2022-10-04T12:56:01.805Z,13.90
2022-10-04T12:58:36.493Z,13.80
2022-10-04T13:01:14.045Z,13.90
2022-10-04T13:04:02.675Z,14.00
2022-10-04T13:06:39.930Z,14.00
2022-10-04T13:09:18.268Z,14.10
2022-10-04T13:11:56.407Z,14.10
2022-10-04T13:14:33.951Z,14.10
2022-10-04T13:17:34.037Z,14.10
2022-10-04T13:20:06.415Z,14.00
2022-10-04T13:23:01.799Z,13.90
2022-10-04T13:25:53.600Z,13.90
2022-10-04T13:28:30.932Z,13.90
2022-10-04T13:31:05.131Z,13.90
2022-10-04T13:33:39.819Z,13.90
2022-10-04T13:36:17.009Z,13.90
2022-10-04T13:39:11.675Z,13.90
2022-10-04T13:41:51.099Z,13.90
2022-10-04T13:44:27.785Z,14.00
2022-10-04T13:47:08.794Z,13.90
2022-10-04T13:49:43.831Z,13.90
2022-10-04T13:52:33.904Z,13.90
2022-10-04T13:55:26.794Z,13.90
2022-10-04T13:58:00.649Z,13.90
2022-10-04T14:00:43.274Z,13.80
2022-10-04T14:03:26.702Z,13.80
2022-10-04T14:06:15.044Z,13.80
2022-10-04T14:09:01.254Z,13.80
2022-10-04T14:11:47.265Z,13.80
2022-10-04T14:14:35.603Z,13.70
2022-10-04T14:17:23.183Z,13.80
2022-10-04T14:20:22.290Z,13.80
2022-10-04T14:23:13.462Z,13.80
2022-10-04T14:25:59.368Z,13.70
2022-10-04T14:28:49.155Z,13.70
2022-10-04T14:31:37.168Z,13.70
2022-10-04T14:34:25.646Z,13.70
2022-10-04T14:37:11.431Z,13.60
2022-10-04T14:39:59.895Z,13.60
2022-10-04T14:42:49.572Z,13.70
2022-10-04T14:45:39.907Z,13.70
2022-10-04T14:48:21.947Z,13.70
2022-10-04T14:50:58.330Z,13.70
2022-10-04T14:53:35.668Z,13.70
2022-10-04T14:56:21.838Z,13.70
2022-10-04T14:58:58.768Z,13.60
2022-10-04T15:01:30.183Z,13.60
2022-10-04T15:04:19.975Z,13.50
2022-10-04T15:06:51.972Z,13.50
2022-10-04T15:09:34.921Z,13.50
2022-10-04T15:12:51.829Z,13.40
2022-10-04T15:15:31.227Z,13.40
2022-10-04T15:18:04.295Z,13.30
2022-10-04T15:20:49.347Z,13.30
2022-10-04T15:23:21.721Z,13.30
2022-10-04T15:25:57.325Z,13.30
2022-10-04T15:28:35.430Z,13.30
2022-10-04T15:31:09.438Z,13.30
2022-10-04T15:33:44.212Z,13.20
2022-10-04T15:36:35.176Z,13.20
2022-10-04T15:39:11.514Z,13.20
2022-10-04T15:41:45.965Z,13.10
2022-10-04T15:44:34.462Z,13.10
2022-10-04T15:47:15.042Z,13.00
2022-10-04T15:49:57.731Z,13.00
2022-10-04T15:52:56.410Z,13.00
2022-10-04T15:55:51.212Z,12.90
2022-10-04T15:58:33.278Z,12.90
2022-10-04T16:01:09.795Z,12.70
2022-10-04T16:03:46.282Z,12.60
2022-10-04T16:06:22.317Z,12.50
2022-10-04T16:09:14.218Z,12.40
2022-10-04T16:11:53.575Z,12.30
2022-10-04T16:14:40.206Z,12.30
2022-10-04T16:17:24.859Z,12.20
2022-10-04T16:20:04.771Z,12.10
2022-10-04T16:22:36.340Z,12.00
2022-10-04T16:25:22.188Z,11.80
2022-10-04T16:28:05.780Z,11.70
2022-10-04T16:30:41.679Z,11.60
2022-10-04T16:33:23.158Z,11.50
2022-10-04T16:36:05.448Z,11.30
2022-10-04T16:38:58.141Z,11.20
2022-10-04T16:41:35.467Z,11.10
2022-10-04T16:44:12.799Z,11.00
2022-10-04T16:46:46.612Z,10.90
2022-10-04T16:49:24.814Z,10.80
2022-10-04T16:52:16.962Z,10.80
2022-10-04T16:55:06.297Z,10.60
2022-10-04T16:57:38.276Z,10.60
2022-10-04T17:00:24.683Z,10.50
2022-10-04T17:03:02.607Z,10.40
2022-10-04T17:05:47.535Z,10.40
2022-10-04T17:08:25.229Z,10.30
2022-10-04T17:11:13.392Z,10.20
2022-10-04T17:13:55.662Z,10.20
2022-10-04T17:16:31.964Z,10.10
2022-10-04T17:19:20.828Z,10.00
2022-10-04T17:21:56.413Z,10.00
2022-10-04T17:24:32.170Z,10.00
2022-10-04T17:27:15.433Z,10.00
2022-10-04T17:29:54.787Z,10.00
2022-10-04T17:32:27.709Z,10.00
2022-10-04T17:35:09.219Z,9.90
2022-10-04T17:37:44.814Z,9.90
2022-10-04T17:40:36.872Z,9.90
2022-10-04T17:43:15.602Z,9.80
2022-10-04T17:45:55.624Z,9.80
2022-10-04T17:48:41.157Z,9.70
2022-10-04T17:51:30.463Z,9.70
2022-10-04T17:54:17.666Z,9.70
2022-10-04T17:56:51.845Z,9.60
2022-10-04T17:59:28.671Z,9.60
2022-10-04T18:02:05.150Z,9.50
2022-10-04T18:04:37.879Z,9.50
2022-10-04T18:07:14.996Z,9.40
2022-10-04T18:09:48.294Z,9.40
2022-10-04T18:12:27.578Z,9.40
2022-10-04T18:15:07.409Z,9.30
2022-10-04T18:17:41.067Z,9.30
2022-10-04T18:20:27.994Z,9.30
2022-10-04T18:23:02.891Z,9.20
2022-10-04T18:25:34.825Z,9.20
2022-10-04T18:28:13.961Z,9.20
2022-10-04T18:30:59.410Z,9.10
2022-10-04T18:33:34.285Z,9.10
2022-10-04T18:36:08.542Z,9.10
2022-10-04T18:38:44.131Z,9.00
2022-10-04T18:41:19.676Z,9.00
2022-10-04T18:43:54.688Z,8.90
2022-10-04T18:46:26.116Z,8.90
2022-10-04T18:48:58.606Z,8.90
2022-10-04T18:51:30.775Z,8.90
2022-10-04T18:54:25.155Z,8.80
2022-10-04T18:57:01.678Z,8.80
2022-10-04T18:59:49.241Z,8.70
2022-10-04T19:02:24.426Z,8.70
2022-10-04T19:05:03.113Z,8.70
2022-10-04T19:07:39.059Z,8.60
2022-10-04T19:10:22.072Z,8.60
2022-10-04T19:13:00.982Z,8.60
2022-10-04T19:15:41.341Z,8.60
2022-10-04T19:18:26.273Z,8.50
2022-10-04T19:21:00.249Z,8.50
2022-10-04T19:23:34.343Z,8.50
2022-10-04T19:26:31.716Z,8.50
2022-10-04T19:29:09.620Z,8.40
2022-10-04T19:31:46.243Z,8.40
2022-10-04T19:34:19.807Z,8.30
2022-10-04T19:36:54.213Z,8.30
2022-10-04T19:39:30.558Z,8.30
2022-10-04T19:42:05.640Z,8.20
2022-10-04T19:44:52.695Z,8.20
2022-10-04T19:47:29.419Z,8.20
2022-10-04T19:50:05.129Z,8.20
2022-10-04T19:52:39.368Z,8.10
2022-10-04T19:55:19.453Z,8.20
2022-10-04T19:57:54.280Z,8.10
2022-10-04T20:00:25.159Z,8.10
2022-10-04T20:02:56.400Z,8.10
2022-10-04T20:05:28.410Z,8.00
2022-10-04T20:08:05.159Z,8.00
2022-10-04T20:10:37.155Z,8.00
2022-10-04T20:13:25.270Z,8.00
2022-10-04T20:16:00.495Z,7.90
2022-10-04T20:18:55.718Z,8.00
2022-10-04T20:21:30.563Z,7.90
2022-10-04T20:24:02.548Z,7.90
2022-10-04T20:26:53.641Z,7.90
2022-10-04T20:29:40.402Z,7.80
2022-10-04T20:32:34.429Z,7.80
2022-10-04T20:35:06.225Z,7.80
2022-10-04T20:38:07.627Z,7.80
2022-10-04T20:40:47.047Z,7.80
2022-10-04T20:43:27.660Z,7.70
2022-10-04T20:46:01.765Z,7.70
2022-10-04T20:48:35.313Z,7.70
2022-10-04T20:51:10.907Z,7.70
2022-10-04T20:53:46.925Z,7.60
2022-10-04T20:56:24.520Z,7.60
2022-10-04T20:58:56.137Z,7.60
2022-10-04T21:01:43.220Z,7.60
2022-10-04T21:04:30.061Z,7.50
2022-10-04T21:07:02.353Z,7.50
2022-10-04T21:09:33.658Z,7.40
2022-10-04T21:12:05.159Z,7.50
2022-10-04T21:14:36.611Z,7.40
2022-10-04T21:17:08.803Z,7.40
2022-10-04T21:19:51.226Z,7.40
2022-10-04T21:22:37.447Z,7.40
2022-10-04T21:25:23.095Z,7.40
2022-10-04T21:27:54.114Z,7.30
2022-10-04T21:30:24.971Z,7.30
2022-10-04T21:32:55.983Z,7.20
2022-10-04T21:35:29.450Z,7.20
2022-10-04T21:38:00.506Z,7.30
2022-10-04T21:40:31.255Z,7.20
2022-10-04T21:43:02.250Z,7.20
2022-10-04T21:45:33.090Z,7.20
2022-10-04T21:48:04.167Z,7.10
2022-10-04T21:50:37.356Z,7.10
2022-10-04T21:53:08.287Z,7.10
2022-10-04T21:55:39.090Z,7.00
2022-10-04T21:58:10.031Z,7.10
2022-10-04T22:00:40.984Z,7.10
2022-10-04T22:03:11.978Z,7.00
2022-10-04T22:05:45.285Z,7.00
2022-10-04T22:08:16.311Z,7.00
2022-10-04T22:10:48.229Z,7.00
2022-10-04T22:13:19.251Z,7.00
2022-10-04T22:15:49.874Z,6.90
2022-10-04T22:22:18.927Z,6.90
2022-10-04T22:24:50.174Z,6.90
2022-10-04T22:27:21.848Z,6.90
2022-10-04T22:29:52.890Z,7.00
2022-10-04T22:32:25.701Z,6.90
2022-10-04T22:35:02.658Z,7.00
2022-10-04T22:37:36.313Z,6.90
2022-10-04T22:40:07.906Z,6.90
2022-10-04T22:42:38.718Z,6.90
2022-10-04T22:45:12.372Z,6.90
2022-10-04T22:47:43.144Z,6.90
2022-10-04T22:50:17.703Z,6.80
2022-10-04T22:52:51.024Z,6.80
2022-10-04T22:55:22.404Z,6.80
2022-10-04T22:57:53.271Z,6.80
2022-10-04T23:00:24.257Z,6.70
2022-10-04T23:02:55.072Z,6.70
2022-10-04T23:05:26.136Z,6.70
2022-10-04T23:07:59.489Z,6.70
2022-10-04T23:10:30.597Z,6.70
2022-10-04T23:13:01.254Z,6.70
2022-10-04T23:15:32.372Z,6.70
2022-10-04T23:18:03.125Z,6.70
2022-10-04T23:20:34.180Z,6.70
2022-10-04T23:23:12.464Z,6.70
2022-10-04T23:25:46.014Z,6.70
2022-10-04T23:28:17.391Z,6.70
2022-10-04T23:30:48.865Z,6.70
2022-10-04T23:33:20.720Z,6.60
2022-10-04T23:35:52.298Z,6.60
2022-10-04T23:38:26.163Z,6.60
2022-10-04T23:40:57.238Z,6.60
2022-10-04T23:43:31.045Z,6.60
2022-10-04T23:46:02.277Z,6.70
2022-10-04T23:48:33.368Z,6.70
2022-10-04T23:51:04.491Z,6.70
2022-10-04T23:53:37.912Z,6.60
2022-10-04T23:56:10.007Z,6.60
2022-10-04T23:58:41.872Z,6.60
